Jacumba, CA

5:21 AM PDT on August 21, 2014 (GMT -0700)
Campo | Change Station
CLOSE
Current Station
Airport
Location: Campo,
Elevation: 2648 ft
Nearby Weather Stations

Elev 2648 ft 32.63 °N, 116.47 °W | Updated 29 minutes ago

Thunderstorm
Thunderstorm
55 °F
Feels Like 55 °F
N
4
Wind Variable Wind from NE
Gusts 14 mph

Today
High -- | Low -- °F
--% Chance of Precip.
Yesterday
High -- | Low -- °F
Precip. -- in
6:12 AM 7:22 PM
Waning Crescent, 14% visible
Pressure 29.85 in
Visibility -9999.0 miles
Clouds
Dew Point 50 °F
Humidity 83%
Rainfall 0.00 in
Snow Depth Not available.
UV Not available.
Pollen 4.80 out of 12
Air Quality Not available.
Flu Activity Not available.
METAR KCZZ 211152Z AUTO 05003KT 13/10 A2993 RMK AO1 SLP107 T01280100 10167 20122 58008

More Conditions Fewer Conditions

Pressure 29.85 in
Visibility -9999.0 miles
Clouds
Dew Point 50 °F
Humidity 83%
Rainfall 0.00 in
Snow Depth Not available.
UV Not available.
Pollen 4.80 out of 12
Air Quality Not available.
Flu Activity Not available.
METAR KCZZ 211152Z AUTO 05003KT 13/10 A2993 RMK AO1 SLP107 T01280100 10167 20122 58008

More Conditions Fewer Conditions

10-Day Weather Forecast

Almanac

Astronomy

Aug. 21, 2014 Rise Set
Actual Time 6:12 AM PDT 7:22 PM PDT
Civil Twilight 5:46 AM PDT 7:48 PM PDT
Nautical Twilight 5:16 AM PDT 8:18 PM PDT
Astronomical Twilight 4:44 AM PDT 8:50 PM PDT
Moon 2:51 AM PDT 4:50 PM PDT
Length of Visible Light 14h 01m
Length of Day
13h 10m
Tomorrow will be 1m 50s shorter.
Waning Crescent, 14% of the Moon is Illuminated
Today
Waning Crescent
Aug 25
New
Sep 2
First Quarter
Sep 8
Full
Sep 15
Last Quarter

Today's Extremes

State Highs State Lows

Community

WunderPhotos

Upload Photos

1,745,890 photos uploaded!

WunderBlogs® & News

Nearby

Snow Depth

Station Depth Elevation
Leavitt Lake 0 in 9400 ft
Leavitt Meadows 1 in 7200 ft
Summit Meadow 1 in 9122 ft
Ebbetts Pass 0 in 8700 ft
Monitor Pass 0 in 8350 ft

Earthquake Activity

City Distance Mag. Time & Date
Yucca Valley, California 117 miles 3.8 8:57 PM PDT
2014-08-14
Alberto Oviedo Mota, Mexico 69 miles 2.8 3:03 PM PDT
2014-08-14
Salton City, California 42 miles 2.6 6:58 AM PDT
2014-08-14
Minimum magnitude displayed is 2.5.

Coastal Water Temperatures

Place Temperature
No Stations Reporting

Nearby Weather Stations